createdAt,value
2022-10-17T00:00:33.672Z,7.93
2022-10-17T00:03:36.552Z,10.45
2022-10-17T00:06:38.083Z,8.52
2022-10-17T00:09:43.725Z,6.78
2022-10-17T00:12:45.173Z,10.25
2022-10-17T00:15:46.607Z,7.70
2022-10-17T00:18:48.111Z,11.40
2022-10-17T00:21:49.799Z,9.02
2022-10-17T00:24:51.349Z,7.72
2022-10-17T00:27:52.817Z,11.40
2022-10-17T00:30:59.912Z,7.55
2022-10-17T00:34:01.556Z,8.25
2022-10-17T00:37:03.485Z,8.70
2022-10-17T00:40:06.431Z,8.88
2022-10-17T00:43:18.137Z,8.95
2022-10-17T00:46:21.395Z,7.97
2022-10-17T00:49:26.125Z,13.47
2022-10-17T00:52:30.202Z,10.10
2022-10-17T00:55:37.153Z,9.45
2022-10-17T00:58:38.783Z,8.68
2022-10-17T01:01:42.953Z,8.80
2022-10-17T01:04:47.577Z,11.23
2022-10-17T01:07:52.436Z,11.13
2022-10-17T01:11:18.660Z,12.68
2022-10-17T01:14:41.612Z,14.65
2022-10-17T01:18:08.528Z,14.20
2022-10-17T01:21:30.494Z,12.60
2022-10-17T01:24:50.989Z,13.73
2022-10-17T01:28:09.362Z,10.98
2022-10-17T01:31:13.921Z,11.68
2022-10-17T01:34:22.424Z,11.10
2022-10-17T01:37:31.907Z,10.50
2022-10-17T01:40:59.133Z,8.75
2022-10-17T01:44:38.132Z,11.43
2022-10-17T01:47:41.929Z,10.13
2022-10-17T01:50:54.368Z,19.35
2022-10-17T01:54:21.492Z,10.00
2022-10-17T01:57:29.442Z,12.00
2022-10-17T02:00:32.943Z,13.80
2022-10-17T02:03:35.558Z,7.00
2022-10-17T02:06:40.374Z,9.25
2022-10-17T02:09:45.893Z,12.00
2022-10-17T02:13:05.279Z,8.68
2022-10-17T02:16:28.845Z,13.10
2022-10-17T02:19:36.747Z,7.13
2022-10-17T02:22:47.423Z,8.48
2022-10-17T02:25:56.289Z,9.68
2022-10-17T02:29:09.067Z,12.43
2022-10-17T02:32:54.900Z,11.05
2022-10-17T02:36:03.060Z,10.07
2022-10-17T02:39:08.749Z,9.27
2022-10-17T02:42:13.048Z,10.55
2022-10-17T02:45:15.771Z,8.80
2022-10-17T02:48:38.743Z,11.60
2022-10-17T02:52:12.776Z,8.32
2022-10-17T02:55:20.403Z,13.70
2022-10-17T02:58:31.977Z,12.00
2022-10-17T03:01:36.047Z,9.27
2022-10-17T03:04:42.987Z,14.20
2022-10-17T03:07:44.686Z,15.70
2022-10-17T03:10:46.413Z,9.80
2022-10-17T03:13:48.229Z,10.93
2022-10-17T03:16:51.491Z,12.47
2022-10-17T03:19:53.360Z,14.23
2022-10-17T03:22:54.870Z,10.00
2022-10-17T03:25:56.730Z,12.10
2022-10-17T03:28:58.340Z,12.80
2022-10-17T03:32:01.117Z,11.18
2022-10-17T03:35:02.747Z,8.65
2022-10-17T03:38:04.569Z,10.73
2022-10-17T03:41:06.792Z,9.00
2022-10-17T03:44:08.307Z,11.05
2022-10-17T03:47:11.927Z,17.08
2022-10-17T03:50:15.863Z,8.35
2022-10-17T03:53:18.605Z,9.10
2022-10-17T03:56:22.967Z,10.38
2022-10-17T03:59:53.835Z,9.38
2022-10-17T04:02:58.045Z,13.93
2022-10-17T04:06:05.043Z,13.40
2022-10-17T04:09:09.956Z,11.32
2022-10-17T04:12:31.925Z,12.13
2022-10-17T04:15:36.287Z,14.93
2022-10-17T04:18:38.191Z,8.90
2022-10-17T04:21:39.692Z,10.70
2022-10-17T04:24:42.790Z,9.75
2022-10-17T04:28:00.521Z,10.20
2022-10-17T04:31:07.130Z,11.85
2022-10-17T04:34:17.133Z,9.20
2022-10-17T04:37:18.899Z,10.13
2022-10-17T04:40:21.781Z,10.85
2022-10-17T04:43:25.908Z,7.68
2022-10-17T04:46:27.744Z,14.85
2022-10-17T04:49:29.285Z,9.32
2022-10-17T04:52:39.124Z,11.57
2022-10-17T04:55:42.366Z,9.93
2022-10-17T04:58:45.506Z,10.98
2022-10-17T05:01:48.992Z,10.50
2022-10-17T05:04:50.635Z,14.15
2022-10-17T05:07:52.336Z,17.05
2022-10-17T05:10:57.129Z,11.80
2022-10-17T05:14:01.049Z,11.50
2022-10-17T05:17:02.725Z,11.23
2022-10-17T05:20:05.459Z,7.78
2022-10-17T05:23:08.342Z,9.15
2022-10-17T05:26:14.956Z,11.60
2022-10-17T05:29:16.569Z,9.40
2022-10-17T05:32:23.004Z,12.52
2022-10-17T05:35:24.831Z,10.80
2022-10-17T05:38:28.113Z,12.23
2022-10-17T05:41:29.915Z,7.13
2022-10-17T05:44:31.424Z,9.23
2022-10-17T05:47:34.913Z,8.10
2022-10-17T05:50:36.792Z,9.48
2022-10-17T05:56:58.184Z,5.65
2022-10-17T06:00:05.430Z,8.25
2022-10-17T06:03:15.615Z,11.23
2022-10-17T06:06:19.315Z,9.18
2022-10-17T06:09:23.069Z,12.10
2022-10-17T06:12:27.389Z,12.60
2022-10-17T06:15:29.454Z,8.30
2022-10-17T06:18:36.584Z,11.50
2022-10-17T06:21:38.894Z,8.55
2022-10-17T06:25:01.931Z,9.40
2022-10-17T06:28:04.753Z,7.13
2022-10-17T06:31:08.552Z,5.93
2022-10-17T06:34:10.976Z,9.43
2022-10-17T06:37:14.062Z,7.72
2022-10-17T06:40:17.204Z,6.88
2022-10-17T06:43:21.397Z,11.52
2022-10-17T06:46:53.315Z,11.98
2022-10-17T06:49:55.936Z,11.27
2022-10-17T06:53:06.260Z,14.25
2022-10-17T06:56:22.864Z,8.05
2022-10-17T06:59:41.882Z,11.00
2022-10-17T07:02:46.361Z,10.57
2022-10-17T07:05:52.248Z,9.13
2022-10-17T07:08:55.647Z,6.97
2022-10-17T07:11:57.593Z,6.13
2022-10-17T07:14:59.107Z,14.70
2022-10-17T07:18:00.583Z,9.55
2022-10-17T07:21:03.957Z,10.52
2022-10-17T07:24:07.451Z,8.25
2022-10-17T07:27:09.273Z,11.03
2022-10-17T07:30:11.317Z,11.02
2022-10-17T07:33:26.424Z,9.05
2022-10-17T07:36:28.039Z,12.95
2022-10-17T07:39:30.897Z,14.68
2022-10-17T07:42:36.111Z,8.65
2022-10-17T07:45:37.972Z,9.88
2022-10-17T07:48:40.160Z,10.90
2022-10-17T07:51:42.988Z,9.63
2022-10-17T07:54:52.577Z,8.18
2022-10-17T07:57:57.092Z,8.65
2022-10-17T08:01:09.427Z,7.53
2022-10-17T08:04:13.837Z,5.30
2022-10-17T08:07:22.987Z,8.35
2022-10-17T08:10:29.718Z,9.60
2022-10-17T08:13:38.678Z,13.70
2022-10-17T08:16:41.032Z,6.45
2022-10-17T08:19:42.698Z,9.35
2022-10-17T08:22:51.720Z,7.20
2022-10-17T08:25:53.313Z,11.32
2022-10-17T08:28:55.111Z,7.97
2022-10-17T08:32:00.227Z,6.28
2022-10-17T08:35:03.578Z,8.90
2022-10-17T08:38:05.180Z,9.13
2022-10-17T08:41:15.139Z,6.10
2022-10-17T08:44:46.269Z,6.05
2022-10-17T08:47:56.632Z,7.97
2022-10-17T08:51:30.464Z,7.53
2022-10-17T08:54:49.761Z,5.60
2022-10-17T08:58:22.294Z,7.80
2022-10-17T09:01:51.087Z,11.57
2022-10-17T09:05:26.565Z,6.68
2022-10-17T09:08:33.884Z,8.07
2022-10-17T09:11:47.169Z,6.97
2022-10-17T09:15:11.115Z,5.63
2022-10-17T09:18:55.212Z,4.93
2022-10-17T09:22:23.035Z,6.70
2022-10-17T09:25:35.774Z,6.82
2022-10-17T09:28:40.449Z,7.90
2022-10-17T09:31:54.171Z,9.55
2022-10-17T09:34:58.357Z,8.10
2022-10-17T09:38:25.109Z,6.38
2022-10-17T09:41:44.841Z,4.80
2022-10-17T09:44:57.076Z,8.90
2022-10-17T09:48:21.521Z,7.65
2022-10-17T09:51:26.491Z,6.80
2022-10-17T09:54:40.231Z,6.68
2022-10-17T09:57:52.470Z,10.77
2022-10-17T10:01:24.817Z,9.13
2022-10-17T10:04:30.465Z,7.45
2022-10-17T10:07:42.043Z,5.45
2022-10-17T10:10:45.249Z,5.93
2022-10-17T10:13:49.172Z,9.95
2022-10-17T10:19:55.516Z,4.65
2022-10-17T10:23:19.474Z,7.85
2022-10-17T10:26:25.772Z,5.70
2022-10-17T10:29:28.903Z,4.32
2022-10-17T10:32:36.911Z,4.70
2022-10-17T10:35:38.685Z,5.20
2022-10-17T10:38:42.499Z,4.65
2022-10-17T10:41:50.429Z,4.10
2022-10-17T10:44:53.937Z,6.28
2022-10-17T10:47:58.848Z,7.03
2022-10-17T10:51:16.952Z,4.32
2022-10-17T10:54:50.731Z,8.52
2022-10-17T10:57:56.531Z,11.13
2022-10-17T11:01:05.090Z,6.75
2022-10-17T11:04:33.157Z,5.57
2022-10-17T11:07:40.441Z,5.72
2022-10-17T11:11:04.899Z,6.88
2022-10-17T11:17:29.507Z,5.93
2022-10-17T11:20:58.036Z,3.78
2022-10-17T11:24:19.308Z,7.30
2022-10-17T11:27:20.780Z,7.35
2022-10-17T11:30:26.817Z,4.43
2022-10-17T11:33:45.943Z,6.68
2022-10-17T11:36:52.743Z,4.43
2022-10-17T11:39:59.916Z,5.25
2022-10-17T11:43:37.727Z,5.03
2022-10-17T11:46:42.456Z,8.05
2022-10-17T11:51:59.791Z,8.60
2022-10-17T11:53:27.341Z,6.60
2022-10-17T11:56:46.596Z,8.13
2022-10-17T11:59:59.769Z,5.05
2022-10-17T12:03:18.895Z,4.35
2022-10-17T12:06:35.367Z,5.03
2022-10-17T12:10:02.500Z,7.72
2022-10-17T12:13:28.592Z,5.03
2022-10-17T12:16:30.056Z,5.18
2022-10-17T12:19:40.530Z,3.67
2022-10-17T12:22:49.268Z,5.35
2022-10-17T12:25:53.699Z,7.43
2022-10-17T12:28:57.331Z,4.72
2022-10-17T12:32:12.119Z,8.18
2022-10-17T12:35:21.187Z,4.45
2022-10-17T12:38:27.654Z,2.55
2022-10-17T12:41:38.265Z,2.83
2022-10-17T12:44:42.377Z,6.33
2022-10-17T12:47:43.850Z,5.43
2022-10-17T12:54:47.056Z,4.03
2022-10-17T12:58:11.735Z,4.70
2022-10-17T13:01:24.091Z,5.05
2022-10-17T13:04:28.009Z,4.10
2022-10-17T13:07:29.994Z,3.10
2022-10-17T13:10:35.437Z,4.40
2022-10-17T13:13:43.262Z,4.60
2022-10-17T13:16:58.455Z,4.65
2022-10-17T13:20:00.593Z,4.68
2022-10-17T13:23:02.275Z,4.00
2022-10-17T13:26:15.225Z,4.28
2022-10-17T13:29:16.814Z,4.43
2022-10-17T13:32:18.284Z,4.65
2022-10-17T13:35:41.998Z,2.85
2022-10-17T13:38:49.261Z,3.80
2022-10-17T13:41:53.961Z,6.18
2022-10-17T13:44:57.097Z,4.43
2022-10-17T13:48:03.141Z,5.43
2022-10-17T13:51:10.346Z,5.00
2022-10-17T13:54:40.110Z,3.28
2022-10-17T13:57:41.664Z,5.35
2022-10-17T14:00:44.905Z,3.95
2022-10-17T14:03:49.001Z,4.45
2022-10-17T14:06:52.770Z,4.70
2022-10-17T14:09:54.341Z,3.85
2022-10-17T14:12:56.899Z,3.10
2022-10-17T14:16:01.502Z,5.25
2022-10-17T14:19:04.253Z,8.82
2022-10-17T14:22:22.531Z,3.83
2022-10-17T14:25:27.077Z,6.93
2022-10-17T14:28:29.044Z,3.00
2022-10-17T14:31:35.575Z,3.45
2022-10-17T14:34:40.596Z,3.20
2022-10-17T14:37:48.740Z,3.88
2022-10-17T14:40:52.521Z,4.90
2022-10-17T14:44:03.520Z,4.50
2022-10-17T14:47:38.041Z,6.43
2022-10-17T14:50:32.177Z,3.67
2022-10-17T14:53:33.872Z,3.65
2022-10-17T14:56:41.473Z,5.03
2022-10-17T14:59:53.832Z,4.43
2022-10-17T15:02:56.422Z,4.28
2022-10-17T15:05:58.444Z,3.28
2022-10-17T15:09:00.669Z,4.68
2022-10-17T15:12:04.137Z,5.30
2022-10-17T15:15:06.156Z,5.32
2022-10-17T15:18:11.061Z,4.38
2022-10-17T15:21:33.272Z,10.13
2022-10-17T15:24:35.205Z,5.68
2022-10-17T15:27:36.936Z,8.90
2022-10-17T15:30:53.425Z,4.22
2022-10-17T15:33:55.826Z,5.18
2022-10-17T15:36:58.597Z,7.43
2022-10-17T15:40:00.396Z,6.13
2022-10-17T15:43:01.874Z,6.85
2022-10-17T15:46:03.831Z,9.68
2022-10-17T15:49:09.838Z,5.28
2022-10-17T15:52:11.405Z,8.90
2022-10-17T15:55:13.202Z,5.55
2022-10-17T15:58:19.232Z,5.53
2022-10-17T16:01:26.310Z,10.85
2022-10-17T16:04:29.245Z,8.43
2022-10-17T16:07:30.930Z,7.23
2022-10-17T16:10:33.538Z,8.18
2022-10-17T16:13:34.998Z,8.60
2022-10-17T16:16:44.035Z,8.23
2022-10-17T16:19:45.815Z,11.57
2022-10-17T16:22:48.617Z,8.15
2022-10-17T16:25:50.185Z,10.18
2022-10-17T16:28:51.730Z,10.38
2022-10-17T16:31:53.272Z,6.93
2022-10-17T16:34:54.837Z,8.93
2022-10-17T16:37:57.780Z,7.80
2022-10-17T16:40:59.232Z,32.35
2022-10-17T16:44:03.925Z,17.60
2022-10-17T16:47:05.375Z,14.63
2022-10-17T16:50:07.326Z,10.35
2022-10-17T16:53:08.812Z,11.07
2022-10-17T16:56:13.004Z,9.48
2022-10-17T16:59:14.456Z,11.32
2022-10-17T17:02:18.911Z,10.35
2022-10-17T17:05:22.985Z,9.88
2022-10-17T17:08:24.487Z,13.77
2022-10-17T17:11:27.621Z,9.85
2022-10-17T17:14:29.067Z,11.10
2022-10-17T17:17:48.118Z,10.38
2022-10-17T17:20:50.901Z,11.35
2022-10-17T17:23:52.696Z,10.10
2022-10-17T17:26:55.628Z,13.05
2022-10-17T17:29:57.151Z,12.02
2022-10-17T17:32:59.977Z,9.52
2022-10-17T17:36:02.015Z,12.05
2022-10-17T17:39:07.587Z,12.13
2022-10-17T17:42:09.158Z,13.63
2022-10-17T17:45:16.841Z,12.35
2022-10-17T17:48:42.453Z,14.40
2022-10-17T17:51:46.551Z,14.88
2022-10-17T17:54:48.142Z,11.85
2022-10-17T17:57:49.853Z,11.60
2022-10-17T18:00:51.468Z,14.85
2022-10-17T18:03:56.624Z,16.23
2022-10-17T18:06:58.090Z,15.18
2022-10-17T18:09:59.845Z,12.05
2022-10-17T18:13:01.449Z,14.38
2022-10-17T18:16:04.187Z,19.52
2022-10-17T18:19:08.794Z,15.70
2022-10-17T18:22:10.672Z,14.10
2022-10-17T18:25:12.127Z,17.83
2022-10-17T18:28:13.612Z,15.10
2022-10-17T18:31:24.311Z,11.50
2022-10-17T18:34:27.217Z,9.95
2022-10-17T18:37:28.679Z,14.65
2022-10-17T18:40:30.219Z,12.98
2022-10-17T18:43:36.686Z,8.25
2022-10-17T18:46:42.737Z,14.75
2022-10-17T18:49:44.325Z,12.98
2022-10-17T18:52:47.827Z,17.15
2022-10-17T18:55:51.221Z,13.98
2022-10-17T18:58:53.536Z,9.90
2022-10-17T19:01:55.357Z,11.13
2022-10-17T19:04:57.128Z,10.77
2022-10-17T19:07:58.668Z,8.27
2022-10-17T19:11:15.132Z,9.98
2022-10-17T19:14:16.851Z,15.05
2022-10-17T19:17:19.315Z,11.55
2022-10-17T19:20:20.828Z,12.20
2022-10-17T19:23:22.340Z,11.57
2022-10-17T19:26:24.896Z,8.40
2022-10-17T19:29:28.152Z,14.13
2022-10-17T19:32:31.081Z,10.93
2022-10-17T19:35:33.918Z,7.65
2022-10-17T19:38:48.965Z,11.57
2022-10-17T19:41:53.683Z,12.55
2022-10-17T19:44:55.133Z,10.93
2022-10-17T19:47:56.644Z,14.52
2022-10-17T19:50:58.551Z,13.77
2022-10-17T19:54:01.198Z,8.85
2022-10-17T19:57:06.778Z,8.75
2022-10-17T20:00:11.637Z,16.98
2022-10-17T20:03:13.138Z,14.57
2022-10-17T20:06:15.461Z,11.90
2022-10-17T20:09:17.326Z,9.48
2022-10-17T20:12:19.206Z,13.75
2022-10-17T20:15:20.681Z,13.25
2022-10-17T20:18:22.721Z,10.40
2022-10-17T20:21:27.358Z,16.05
2022-10-17T20:24:28.908Z,13.45
2022-10-17T20:27:30.429Z,10.02
2022-10-17T20:30:31.955Z,10.20
2022-10-17T20:33:33.438Z,10.15
2022-10-17T20:36:37.421Z,37.47
2022-10-17T20:39:39.159Z,26.02
2022-10-17T20:42:40.629Z,24.27
2022-10-17T20:45:50.839Z,19.92
2022-10-17T20:48:54.714Z,16.65
2022-10-17T20:51:56.250Z,15.27
2022-10-17T20:54:57.736Z,12.75
2022-10-17T20:57:59.556Z,25.05
2022-10-17T21:01:06.402Z,28.83
2022-10-17T21:04:40.308Z,22.98
2022-10-17T21:07:30.265Z,16.13
2022-10-17T21:10:35.415Z,14.45
2022-10-17T21:13:37.917Z,15.15
2022-10-17T21:16:41.231Z,11.50
2022-10-17T21:19:42.708Z,12.90
2022-10-17T21:22:44.277Z,8.05
2022-10-17T21:25:45.754Z,11.93
2022-10-17T21:28:48.593Z,9.00
2022-10-17T21:31:50.409Z,11.43
2022-10-17T21:34:51.930Z,16.40
2022-10-17T21:37:53.409Z,19.73
2022-10-17T21:40:56.081Z,16.50
2022-10-17T21:44:01.202Z,17.77
2022-10-17T21:47:02.853Z,6.63
2022-10-17T21:50:04.647Z,10.68
2022-10-17T21:53:08.871Z,11.45
2022-10-17T21:56:13.017Z,14.50
2022-10-17T21:59:14.932Z,7.80
2022-10-17T22:02:16.496Z,10.02
2022-10-17T22:05:18.048Z,8.40
2022-10-17T22:08:19.620Z,9.25
2022-10-17T22:11:24.041Z,11.38
2022-10-17T22:14:27.061Z,7.32
2022-10-17T22:17:28.767Z,7.47
2022-10-17T22:20:30.517Z,16.02
2022-10-17T22:23:32.384Z,10.93
2022-10-17T22:26:35.817Z,13.63
2022-10-17T22:29:37.408Z,11.40
2022-10-17T22:32:38.960Z,9.82
2022-10-17T22:35:42.136Z,7.90
2022-10-17T22:38:43.633Z,9.37
2022-10-17T22:41:45.196Z,11.48
2022-10-17T22:44:47.769Z,14.65
2022-10-17T22:47:49.316Z,9.57
2022-10-17T22:50:52.440Z,10.23
2022-10-17T22:53:53.920Z,16.98
2022-10-17T22:56:55.371Z,16.77
2022-10-17T22:59:56.857Z,10.95
2022-10-17T23:02:58.369Z,11.05
2022-10-17T23:06:00.691Z,14.18
2022-10-17T23:09:02.488Z,11.38
2022-10-17T23:12:04.488Z,12.25
2022-10-17T23:15:06.427Z,18.00
2022-10-17T23:18:09.658Z,12.10
2022-10-17T23:21:11.861Z,12.37
2022-10-17T23:24:13.361Z,13.02
2022-10-17T23:27:14.844Z,11.20
2022-10-17T23:30:16.703Z,12.20
2022-10-17T23:33:18.213Z,22.50
2022-10-17T23:36:21.165Z,11.77
2022-10-17T23:39:22.853Z,8.45
2022-10-17T23:42:24.440Z,10.35
2022-10-17T23:45:26.024Z,12.60
2022-10-17T23:48:28.135Z,11.38
2022-10-17T23:51:29.760Z,33.35
2022-10-17T23:54:31.727Z,32.20
2022-10-17T23:57:33.698Z,27.83
